| time (UTC) | temp F | wind direction | speed knots | gust knots | rain 1hr in | rain 24hr in | rain mn in | humidity % | barometer mb |
| 20260506143021 | 51 | 40 | 2.6 | 7.0 | 0.00 | 1.35 | 1.32 | 90 | 1008.5 |
| 20260506142023 | 51 | 22 | 1.7 | 6.1 | 0.00 | 1.35 | 1.32 | 90 | 1008.5 |
| 20260506141021 | 51 | 64 | 3.5 | 8.7 | 0.00 | 1.35 | 1.32 | 91 | 1008.5 |
| 20260506140023 | 51 | 142 | 1.7 | 4.3 | 0.00 | 1.35 | 1.32 | 90 | 1008.4 |
| 20260506135021 | 51 | 28 | 1.7 | 5.2 | 0.01 | 1.35 | 1.32 | 90 | 1008.4 |
| 20260506134051 | 51 | 65 | 2.6 | 7.8 | 0.01 | 1.35 | 1.32 | 91 | 1008.3 |
| 20260506133022 | 51 | 288 | 1.7 | 3.5 | 0.01 | 1.35 | 1.32 | 90 | 1008.4 |
| 20260506132021 | 51 | 41 | 1.7 | 6.1 | 0.01 | 1.35 | 1.32 | 90 | 1008.2 |
| 20260506131022 | 51 | 53 | 3.5 | 10.4 | 0.02 | 1.35 | 1.32 | 89 | 1008.2 |
| 20260506130021 | 51 | 55 | 1.7 | 4.3 | 0.02 | 1.35 | 1.32 | 91 | 1008.2 |
| 20260506125022 | 50 | 90 | 1.7 | 3.5 | 0.02 | 1.34 | 1.31 | 90 | 1008.1 |
| 20260506124043 | 51 | 14 | 2.6 | 7.8 | 0.03 | 1.34 | 1.31 | 90 | 1008.1 |
| 20260506123021 | 51 | 23 | 2.6 | 5.2 | 0.03 | 1.34 | 1.31 | 90 | 1008.0 |
| 20260506122022 | 51 | 311 | 1.7 | 4.3 | 0.03 | 1.34 | 1.31 | 91 | 1008.1 |
| 20260506121021 | 51 | 76 | 1.7 | 3.5 | 0.03 | 1.33 | 1.30 | 91 | 1008.0 |
| 20260506120022 | 51 | 187 | 0.9 | 3.5 | 0.04 | 1.33 | 1.30 | 90 | 1007.9 |
| 20260506115043 | 51 | 68 | 1.7 | 4.3 | 0.04 | 1.32 | 1.29 | 90 | 1007.7 |
| 20260506114041 | 51 | 217 | 1.7 | 5.2 | 0.05 | 1.32 | 1.28 | 91 | 1007.8 |
| 20260506113022 | 51 | 145 | 0.9 | 4.3 | 0.07 | 1.31 | 1.28 | 90 | 1007.8 |
| 20260506112022 | 51 | 74 | 1.7 | 7.0 | 0.08 | 1.31 | 1.28 | 90 | 1007.7 |
| 20260506111023 | 51 | 137 | 1.7 | 5.2 | 0.09 | 1.30 | 1.27 | 90 | 1007.6 |
| 20260506110022 | 51 | 217 | 0.9 | 4.3 | 0.09 | 1.29 | 1.26 | 90 | 1007.7 |
| 20260506105021 | 51 | 40 | 1.7 | 7.0 | 0.10 | 1.28 | 1.25 | 91 | 1007.6 |
| 20260506104022 | 51 | 58 | 0.9 | 5.2 | 0.09 | 1.26 | 1.23 | 91 | 1007.6 |
| 20260506103022 | 51 | 11 | 1.7 | 5.2 | 0.08 | 1.24 | 1.21 | 91 | 1007.5 |
| 20260506102022 | 51 | 64 | 1.7 | 3.5 | 0.06 | 1.22 | 1.19 | 91 | 1007.4 |
| 20260506101021 | 51 | 85 | 1.7 | 5.2 | 0.05 | 1.21 | 1.18 | 90 | 1007.3 |
| 20260506100044 | 51 | 71 | 1.7 | 5.2 | 0.04 | 1.20 | 1.17 | 92 | 1007.2 |
| 20260506095021 | 51 | 40 | 1.7 | 7.8 | 0.02 | 1.18 | 1.15 | 91 | 1007.2 |
| 20260506094042 | 51 | 31 | 1.7 | 4.3 | 0.02 | 1.18 | 1.14 | 92 | 1007.0 |
| 20260506093021 | 51 | 56 | 2.6 | 6.1 | 0.02 | 1.17 | 1.13 | 92 | 1007.0 |
| 20260506092025 | 51 | 36 | 1.7 | 5.2 | 0.03 | 1.17 | 1.13 | 92 | 1006.9 |
| 20260506091022 | 51 | 130 | 0.9 | 3.5 | 0.04 | 1.17 | 1.13 | 93 | 1006.7 |
| 20260506090022 | 51 | 75 | 1.7 | 3.5 | 0.05 | 1.17 | 1.13 | 92 | 1006.7 |
| 20260506085023 | 51 | 37 | 1.7 | 5.2 | 0.08 | 1.18 | 1.13 | 92 | 1006.5 |
| 20260506084022 | 51 | 42 | 2.6 | 5.2 | 0.11 | 1.18 | 1.12 | 93 | 1006.5 |
| 20260506083045 | 51 | 55 | 2.6 | 7.8 | 0.13 | 1.18 | 1.11 | 93 | 1006.5 |
| 20260506082022 | 51 | 52 | 2.6 | 6.1 | 0.14 | 1.17 | 1.11 | 93 | 1006.5 |
| 20260506081021 | 51 | 46 | 1.7 | 6.1 | 0.14 | 1.16 | 1.09 | 93 | 1006.5 |
| 20260506073023 | 51 | 9 | 0.9 | 2.6 | 0.10 | 1.05 | 0.98 | 94 | 1006.4 |
| 20260506072023 | 51 | 134 | 0.9 | 2.6 | 0.10 | 1.03 | 0.97 | 94 | 1006.4 |
| 20260506071023 | 51 | 81 | 0.9 | 5.2 | 0.11 | 1.02 | 0.96 | 94 | 1006.3 |
| 20260506062021 | 51 | 17 | 0.9 | 5.2 | 0.09 | 0.92 | 0.86 | 94 | 1006.2 |
| 20260506061022 | 51 | 44 | 1.7 | 5.2 | 0.09 | 0.90 | 0.84 | 94 | 1006.1 |
| 20260506051047 | 51 | 101 | 0.9 | 3.5 | 0.10 | 0.82 | 0.76 | 94 | 1005.9 |
| 20260506045023 | 51 | 79 | 1.7 | 3.5 | 0.10 | 0.80 | 0.72 | 94 | 1005.8 |
| 20260506044023 | 51 | 44 | 1.7 | 3.5 | 0.11 | 0.83 | 0.70 | 94 | 1005.9 |
| 20260506043023 | 51 | 70 | 1.7 | 6.1 | 0.11 | 0.84 | 0.69 | 94 | 1005.8 |
| 20260506042022 | 51 | 80 | 1.7 | 7.0 | 0.10 | 0.84 | 0.67 | 94 | 1005.8 |
| 20260506041043 | 51 | 120 | 0.9 | 4.3 | 0.10 | 0.88 | 0.65 | 94 | 1005.8 |
| 20260506040022 | 51 | 93 | 1.7 | 5.2 | 0.10 | 0.89 | 0.63 | 94 | 1005.9 |
| 20260506035023 | 51 | 75 | 0.9 | 3.5 | 0.10 | 0.88 | 0.61 | 94 | 1005.9 |
| 20260506034022 | 51 | 54 | 1.7 | 5.2 | 0.10 | 0.87 | 0.59 | 94 | 1005.9 |
| 20260506033022 | 51 | 68 | 1.7 | 6.1 | 0.12 | 0.86 | 0.58 | 94 | 1005.8 |
| 20260506032023 | 51 | 48 | 1.7 | 5.2 | 0.14 | 0.87 | 0.57 | 94 | 1006.0 |
| 20260506031021 | 51 | 37 | 1.7 | 4.3 | 0.16 | 0.87 | 0.55 | 94 | 1006.0 |
| 20260506030022 | 51 | 36 | 0.9 | 4.3 | 0.17 | 0.86 | 0.54 | 94 | 1006.1 |
| 20260506025023 | 51 | 250 | 0.9 | 2.6 | 0.17 | 0.84 | 0.52 | 94 | 1006.1 |
| 20260506024021 | 51 | 182 | 1.7 | 4.3 | 0.17 | 0.82 | 0.50 | 94 | 1006.1 |
| 20260506023021 | 51 | 224 | 1.7 | 4.3 | 0.15 | 0.79 | 0.46 | 93 | 1006.2 |
| 20260506022021 | 51 | 247 | 0.9 | 3.5 | 0.13 | 0.75 | 0.43 | 93 | 1006.3 |
| 20260506021024 | 51 | 22 | 1.7 | 6.1 | 0.11 | 0.73 | 0.39 | 93 | 1006.3 |
| 20260506020023 | 51 | 174 | 1.7 | 3.5 | 0.10 | 0.71 | 0.37 | 93 | 1006.4 |
| 20260506015022 | 51 | 185 | 1.7 | 3.5 | 0.09 | 0.69 | 0.35 | 93 | 1006.3 |
| 20260506014023 | 51 | 346 | 0.9 | 4.3 | 0.09 | 0.67 | 0.33 | 93 | 1006.4 |
| 20260506013023 | 51 | 21 | 2.6 | 5.2 | 0.09 | 0.65 | 0.32 | 93 | 1006.5 |
| 20260506012043 | 51 | 360 | 1.7 | 5.2 | 0.09 | 0.63 | 0.30 | 93 | 1006.5 |
| 20260506011023 | 52 | 169 | 1.7 | 4.3 | 0.10 | 0.62 | 0.28 | 93 | 1006.5 |
| 20260506010022 | 52 | 187 | 1.7 | 5.2 | 0.11 | 0.61 | 0.27 | 93 | 1006.7 |
| 20260506005041 | 52 | 161 | 1.7 | 4.3 | 0.12 | 0.59 | 0.26 | 93 | 1006.7 |
| 20260506004024 | 52 | 98 | 1.7 | 4.3 | 0.12 | 0.58 | 0.24 | 93 | 1006.8 |
| 20260506003021 | 52 | 348 | 2.6 | 6.1 | 0.13 | 0.57 | 0.23 | 93 | 1006.9 |
| 20260506002042 | 52 | 106 | 1.7 | 4.3 | 0.11 | 0.55 | 0.21 | 93 | 1007.0 |
| 20260506001042 | 52 | 3 | 0.9 | 3.5 | 0.10 | 0.52 | 0.19 | 92 | 1007.0 |
| 20260506000023 | 52 | 187 | 0.9 | 3.5 | 0.09 | 0.50 | 0.16 | 92 | 1007.1 |
| 20260505235022 | 52 | 189 | 0.9 | 2.6 | 0.08 | 0.47 | 0.13 | 92 | 1007.3 |
| 20260505234042 | 52 | 198 | 0.9 | 1.7 | 0.08 | 0.46 | 0.12 | 92 | 1007.3 |
| 20260505233023 | 52 | 37 | 0.9 | 3.5 | 0.07 | 0.44 | 0.10 | 92 | 1007.4 |
| 20260505232022 | 52 | 94 | 0.9 | 5.2 | 0.08 | 0.43 | 0.09 | 92 | 1007.4 |
| 20260505231023 | 52 | 26 | 0.9 | 3.5 | 0.08 | 0.42 | 0.08 | 92 | 1007.4 |
| 20260505230024 | 52 | 133 | 0.9 | 4.3 | 0.07 | 0.41 | 0.07 | 92 | 1007.5 |
| 20260505225024 | 52 | 29 | 1.7 | 5.2 | 0.06 | 0.40 | 0.06 | 92 | 1007.5 |
| 20260505224024 | 53 | 340 | 0.9 | 4.3 | 0.06 | 0.39 | 0.05 | 91 | 1007.6 |
| 20260505223024 | 53 | 51 | 1.7 | 3.5 | 0.05 | 0.37 | 0.03 | 91 | 1007.7 |
| 20260505222022 | 53 | 187 | 0.9 | 4.3 | 0.04 | 0.36 | 0.02 | 91 | 1007.6 |
| 20260505221044 | 53 | 27 | 1.7 | 4.3 | 0.04 | 0.35 | 0.01 | 91 | 1007.7 |
| 20260505220042 | 53 | 144 | 0.9 | 2.6 | 0.03 | 0.34 | 0.34 | 91 | 1007.8 |
| 20260505215024 | 53 | 44 | 1.7 | 6.1 | 0.03 | 0.34 | 0.34 | 91 | 1007.8 |
| 20260505214042 | 53 | 172 | 0.9 | 2.6 | 0.02 | 0.33 | 0.33 | 91 | 1007.9 |
| 20260505213025 | 53 | 50 | 0.9 | 3.5 | 0.01 | 0.32 | 0.32 | 91 | 1008.0 |
| 20260505212102 | 53 | 31 | 1.7 | 6.1 | 0.01 | 0.32 | 0.32 | 90 | 1008.1 |
| 20260505211023 | 53 | 110 | 1.7 | 3.5 | 0.00 | 0.32 | 0.32 | 90 | 1008.2 |
| 20260505210022 | 53 | 54 | 1.7 | 6.1 | 0.00 | 0.31 | 0.31 | 90 | 1008.2 |
| 20260505205023 | 53 | 34 | 1.7 | 4.3 | 0.00 | 0.31 | 0.31 | 90 | 1008.2 |
| 20260505204022 | 53 | 41 | 2.6 | 7.0 | 0.00 | 0.31 | 0.31 | 89 | 1008.3 |
| 20260505203023 | 53 | 49 | 1.7 | 7.8 | 0.00 | 0.31 | 0.31 | 89 | 1008.3 |
| 20260505202024 | 53 | 61 | 1.7 | 4.3 | 0.00 | 0.31 | 0.31 | 89 | 1008.3 |
| 20260505201023 | 53 | 57 | 1.7 | 7.8 | 0.00 | 0.31 | 0.31 | 89 | 1008.3 |
| 20260505200024 | 53 | 59 | 1.7 | 5.2 | 0.00 | 0.31 | 0.31 | 89 | 1008.3 |
| 20260505195023 | 53 | 59 | 1.7 | 5.2 | 0.00 | 0.31 | 0.31 | 88 | 1008.3 |
| 20260505194022 | 53 | 114 | 0.9 | 4.3 | 0.00 | 0.31 | 0.31 | 88 | 1008.2 |
| 20260505193103 | 53 | 35 | 1.7 | 5.2 | 0.00 | 0.31 | 0.31 | 88 | 1008.3 |
| 20260505192024 | 53 | 48 | 2.6 | 7.8 | 0.00 | 0.31 | 0.31 | 88 | 1008.2 |
| 20260505191024 | 53 | 69 | 1.7 | 4.3 | 0.00 | 0.32 | 0.31 | 88 | 1008.1 |
| 20260505190023 | 54 | 35 | 1.7 | 5.2 | 0.00 | 0.32 | 0.31 | 87 | 1008.1 |
| 20260505185022 | 54 | 45 | 1.7 | 5.2 | 0.00 | 0.32 | 0.31 | 88 | 1008.1 |
| 20260505184023 | 54 | 61 | 1.7 | 4.3 | 0.00 | 0.32 | 0.31 | 87 | 1008.1 |
| 20260505183022 | 54 | 41 | 1.7 | 3.5 | 0.00 | 0.32 | 0.31 | 88 | 1008.0 |
| 20260505182023 | 54 | 75 | 0.9 | 3.5 | 0.00 | 0.32 | 0.31 | 87 | 1008.0 |
| 20260505181016 | 54 | 53 | 0.9 | 4.3 | 0.00 | 0.32 | 0.31 | 87 | 1008.0 |
| 20260505180043 | 54 | 82 | 1.7 | 5.2 | 0.00 | 0.32 | 0.31 | 87 | 1008.2 |
| 20260505175022 | 54 | 29 | 0.9 | 4.3 | 0.00 | 0.32 | 0.31 | 88 | 1008.2 |
| 20260505174022 | 54 | 56 | 2.6 | 5.2 | 0.00 | 0.32 | 0.31 | 87 | 1008.2 |
| 20260505173023 | 54 | 47 | 1.7 | 6.1 | 0.00 | 0.32 | 0.31 | 86 | 1008.3 |
| 20260505172042 | 54 | 37 | 0.9 | 3.5 | 0.00 | 0.33 | 0.31 | 87 | 1008.2 |
| 20260505171023 | 54 | 58 | 1.7 | 7.0 | 0.00 | 0.33 | 0.31 | 87 | 1008.2 |
| 20260505170022 | 55 | 73 | 1.7 | 3.5 | 0.00 | 0.33 | 0.31 | 87 | 1008.2 |
| 20260505165023 | 55 | 47 | 1.7 | 7.0 | 0.00 | 0.33 | 0.31 | 87 | 1008.2 |
| 20260505164022 | 55 | 96 | 0.9 | 3.5 | 0.00 | 0.33 | 0.31 | 86 | 1008.4 |
| 20260505163026 | 55 | 92 | 1.7 | 5.2 | 0.00 | 0.33 | 0.31 | 87 | 1008.3 |
| 20260505162023 | 55 | 40 | 1.7 | 6.1 | 0.00 | 0.33 | 0.31 | 86 | 1008.4 |
| 20260505161022 | 55 | 76 | 1.7 | 7.0 | 0.00 | 0.33 | 0.31 | 86 | 1008.3 |
| 20260505153043 | 55 | 25 | 1.7 | 5.2 | 0.00 | 0.33 | 0.31 | 86 | 1008.6 |
| 20260505152023 | 55 | 47 | 1.7 | 5.2 | 0.00 | 0.33 | 0.31 | 87 | 1008.8 |
| 20260505151023 | 55 | 97 | 1.7 | 4.3 | 0.00 | 0.33 | 0.31 | 86 | 1008.8 |
| 20260505150109 | 55 | 138 | 1.7 | 4.3 | 0.00 | 0.33 | 0.31 | 86 | 1008.9 |